Aviation Digital Data Service (ADDS)

Output produced by METARs form (0027 UTC 19 August 2019)
found at http://www.aviationweather.gov/metar/data/
 
Forecast for: VTUL (LOEI , TH)
Text: TAF VTUL 182300Z 1900/1924 VRB02KT 9999 SCT030
Forecast period: 0000 UTC 19 August 2019 to 0000 UTC 20 August 2019
Forecast type: FROM: standard forecast or significant change
Winds: variable direction winds at 2 MPH (2 knots; 1.0 m/s)
Visibility: 6 or more miles 10+ km)
Ceiling: at least 12,000 feet AGL
Clouds: scattered clouds at 3000 feet AGL
Weather: no significant weather forecast for this period
Text: TEMPO 1907/1914 25015KT 5000 TSRA FEW018CB BKN030
Forecast period: 0700 to 1400 UTC 19 August 2019
Forecast type: TEMPORARY: The following changes expected for less than half the time period
Winds: from the WSW (250 degrees) at 17 MPH (15 knots; 7.7 m/s)
Visibility: 3 miles (5 km)
Ceiling: 3000 feet AGL
Clouds: few clouds at 1800 feet AGL
broken clouds at 3000 feet AGL
Weather: TSRA  (rain associated with thunderstorm(s))